Time;durP1;ratioP1;P1;durP2;ratioP2;P2;SDS_P1;SDS_P2;PMS_P1;PMS_P2;Temp;Humidity;BMP_temperature;BMP_pressure;BME280_temperature;BME280_humidity;BME280_pressure;Samples;Min_cycle;Max_cycle;Signal;HPM_P1;HPM_P2
2023/10/24 00:00:57;;;;;;;;;;;19.20;1.00;;;;;;4973956;28;20344;-59
2023/10/24 00:03:23;;;;;;;;;;;19.20;1.00;;;;;;4977036;28;19926;-58
2023/10/24 00:05:51;;;;;;;;;;;19.20;1.00;;;;;;4975947;28;19926;-59
2023/10/24 00:08:18;;;;;;;;;;;19.20;1.00;;;;;;4974400;28;20036;-59
2023/10/24 00:10:45;;;;;;;;;;;19.20;1.00;;;;;;4972814;28;19936;-56
2023/10/24 00:13:12;;;;;;;;;;;19.20;1.00;;;;;;4979155;28;19926;-58
2023/10/24 00:15:39;;;;;;;;;;;19.20;1.00;;;;;;4977867;28;19926;-59
2023/10/24 00:18:05;;;;;;;;;;;19.10;1.00;;;;;;4977225;28;20301;-58
2023/10/24 00:20:32;;;;;;;;;;;19.10;1.00;;;;;;4975797;28;19933;-59
2023/10/24 00:22:59;;;;;;;;;;;19.10;1.00;;;;;;4978268;28;19965;-59
2023/10/24 00:25:26;;;;;;;;;;;19.10;1.00;;;;;;4978348;28;19930;-59
2023/10/24 00:27:52;;;;;;;;;;;19.10;1.00;;;;;;4972619;28;19946;-59
2023/10/24 00:30:19;;;;;;;;;;;19.00;1.00;;;;;;4960020;28;20033;-59
2023/10/24 00:32:49;;;;;;;;;;;19.00;1.00;;;;;;4956189;28;19926;-59
2023/10/24 00:35:17;;;;;;;;;;;19.00;1.00;;;;;;4957935;28;19933;-59
2023/10/24 00:37:44;;;;;;;;;;;19.00;1.00;;;;;;4978297;28;19931;-59
2023/10/24 00:40:11;;;;;;;;;;;19.00;1.00;;;;;;4971709;28;19934;-59
2023/10/24 00:42:37;;;;;;;;;;;19.00;1.00;;;;;;4959578;28;19941;-58
2023/10/24 00:45:05;;;;;;;;;;;19.00;1.00;;;;;;4966067;28;19930;-59
2023/10/24 00:47:32;;;;;;;;;;;19.00;1.00;;;;;;4956332;28;20563;-59
2023/10/24 00:49:59;;;;;;;;;;;19.00;1.00;;;;;;4960498;28;19926;-59
2023/10/24 00:52:26;;;;;;;;;;;19.00;1.00;;;;;;4975967;28;19926;-59
2023/10/24 00:54:53;;;;;;;;;;;18.90;1.00;;;;;;4975223;28;20400;-59
2023/10/24 00:57:20;;;;;;;;;;;18.90;1.00;;;;;;4978751;28;19947;-59
2023/10/24 00:59:47;;;;;;;;;;;18.90;1.00;;;;;;4955098;28;19933;-59
2023/10/24 01:02:13;;;;;;;;;;;18.90;1.00;;;;;;4976247;28;20028;-59
2023/10/24 01:04:42;;;;;;;;;;;18.90;1.00;;;;;;4976016;28;19932;-59
2023/10/24 01:07:09;;;;;;;;;;;18.90;1.00;;;;;;4960355;28;19932;-59
2023/10/24 01:09:36;;;;;;;;;;;18.90;1.00;;;;;;4980945;28;20348;-59
2023/10/24 01:12:03;;;;;;;;;;;18.90;1.00;;;;;;4974347;28;19974;-59
2023/10/24 01:14:30;;;;;;;;;;;18.90;1.00;;;;;;4973662;28;19949;-59
2023/10/24 01:16:57;;;;;;;;;;;18.80;1.00;;;;;;4974488;28;19965;-60
2023/10/24 01:19:23;;;;;;;;;;;18.80;1.00;;;;;;4977377;28;20427;-59
2023/10/24 01:21:50;;;;;;;;;;;18.80;1.00;;;;;;4970973;28;20353;-59
2023/10/24 01:24:17;;;;;;;;;;;18.80;1.00;;;;;;4971564;28;20028;-58
2023/10/24 01:26:44;;;;;;;;;;;18.80;1.00;;;;;;4974530;28;20303;-59
2023/10/24 01:29:11;;;;;;;;;;;18.80;1.00;;;;;;4971781;28;19958;-59
2023/10/24 01:31:39;;;;;;;;;;;18.80;1.00;;;;;;4975684;28;20429;-58
2023/10/24 01:34:06;;;;;;;;;;;18.80;1.00;;;;;;4974476;28;19932;-59
2023/10/24 01:36:32;;;;;;;;;;;18.70;1.00;;;;;;4959341;28;20013;-59
2023/10/24 01:38:59;;;;;;;;;;;18.70;1.00;;;;;;4955373;28;19941;-59
2023/10/24 01:41:26;;;;;;;;;;;18.70;1.00;;;;;;4973141;28;19933;-59
2023/10/24 01:43:52;;;;;;;;;;;18.70;1.00;;;;;;4958762;28;20947;-59
2023/10/24 01:46:19;;;;;;;;;;;18.70;1.00;;;;;;4956208;28;19992;-59
2023/10/24 01:48:46;;;;;;;;;;;18.70;1.00;;;;;;4977531;28;19929;-59
2023/10/24 01:51:13;;;;;;;;;;;18.70;1.00;;;;;;4957231;28;20034;-59
2023/10/24 01:53:40;;;;;;;;;;;18.70;1.00;;;;;;4953479;28;20024;-59
2023/10/24 01:56:22;;;;;;;;;;;18.70;1.00;;;;;;4957856;28;20173;-59
2023/10/24 01:58:49;;;;;;;;;;;18.60;1.00;;;;;;4954969;28;19934;-57
2023/10/24 02:01:15;;;;;;;;;;;18.60;1.00;;;;;;4957347;28;19961;-59
2023/10/24 02:03:42;;;;;;;;;;;18.60;1.00;;;;;;4954932;28;19933;-59
2023/10/24 02:06:09;;;;;;;;;;;18.60;1.00;;;;;;4972379;28;19936;-59
2023/10/24 02:08:38;;;;;;;;;;;18.60;1.00;;;;;;4957482;28;19947;-59
2023/10/24 02:11:04;;;;;;;;;;;18.60;1.00;;;;;;4955581;28;20308;-59
2023/10/24 02:13:31;;;;;;;;;;;18.60;1.00;;;;;;4955845;28;19926;-59
2023/10/24 02:15:58;;;;;;;;;;;18.60;1.00;;;;;;4956893;28;19933;-59
2023/10/24 02:18:26;;;;;;;;;;;18.60;1.00;;;;;;4974083;28;20014;-59
2023/10/24 02:20:52;;;;;;;;;;;18.50;1.00;;;;;;4955441;28;19926;-59
2023/10/24 02:23:19;;;;;;;;;;;18.60;1.00;;;;;;4972521;28;20733;-59
2023/10/24 02:25:46;;;;;;;;;;;18.50;1.00;;;;;;4953592;28;20024;-59
2023/10/24 02:28:13;;;;;;;;;;;18.50;1.00;;;;;;4974750;28;19957;-59
2023/10/24 02:30:39;;;;;;;;;;;18.50;1.00;;;;;;4973996;28;20435;-58
2023/10/24 02:33:06;;;;;;;;;;;18.50;1.00;;;;;;4969790;28;20584;-57
2023/10/24 02:35:33;;;;;;;;;;;18.50;1.00;;;;;;4960869;28;19942;-58
2023/10/24 02:38:00;;;;;;;;;;;18.50;1.00;;;;;;4972350;28;19960;-59
2023/10/24 02:40:27;;;;;;;;;;;18.50;1.00;;;;;;4971266;28;20016;-59
2023/10/24 02:42:54;;;;;;;;;;;18.50;1.00;;;;;;4953715;28;19926;-59
2023/10/24 02:45:22;;;;;;;;;;;18.50;1.00;;;;;;4975493;28;20376;-57
2023/10/24 02:47:49;;;;;;;;;;;18.50;1.00;;;;;;4956085;28;19926;-59
2023/10/24 02:50:16;;;;;;;;;;;18.50;1.00;;;;;;4971418;28;19949;-59
2023/10/24 02:52:42;;;;;;;;;;;18.50;1.00;;;;;;4965316;28;19933;-59
2023/10/24 02:55:09;;;;;;;;;;;18.50;1.00;;;;;;4974947;28;19941;-58
2023/10/24 02:57:36;;;;;;;;;;;18.50;1.00;;;;;;4956863;28;20373;-59
2023/10/24 03:00:03;;;;;;;;;;;18.50;1.00;;;;;;4958650;28;19950;-59
2023/10/24 03:02:30;;;;;;;;;;;18.40;1.00;;;;;;4953004;28;19925;-59
2023/10/24 03:04:57;;;;;;;;;;;18.40;1.00;;;;;;4957300;28;19930;-57
2023/10/24 03:07:24;;;;;;;;;;;18.40;1.00;;;;;;4976738;28;19938;-58
2023/10/24 03:09:51;;;;;;;;;;;18.40;1.00;;;;;;4956572;28;19933;-59
2023/10/24 03:12:18;;;;;;;;;;;18.40;1.00;;;;;;4969980;28;20004;-59
2023/10/24 03:14:45;;;;;;;;;;;18.40;1.00;;;;;;4974945;28;20304;-59
2023/10/24 03:17:11;;;;;;;;;;;18.40;1.00;;;;;;4956691;28;19969;-58
2023/10/24 03:19:38;;;;;;;;;;;18.40;1.00;;;;;;4971828;28;19936;-59
2023/10/24 03:22:05;;;;;;;;;;;18.40;1.00;;;;;;4956058;28;19926;-58
2023/10/24 03:24:32;;;;;;;;;;;18.40;1.00;;;;;;4972994;28;20395;-58
2023/10/24 03:26:59;;;;;;;;;;;18.40;1.00;;;;;;4954199;28;19926;-59
2023/10/24 03:29:25;;;;;;;;;;;18.40;1.00;;;;;;4972863;28;20028;-58
2023/10/24 03:31:52;;;;;;;;;;;18.40;1.00;;;;;;4957868;28;19934;-59
2023/10/24 03:34:19;;;;;;;;;;;18.40;1.00;;;;;;4978965;28;19932;-59
2023/10/24 03:36:46;;;;;;;;;;;18.40;1.00;;;;;;4959171;28;20020;-58
2023/10/24 03:39:12;;;;;;;;;;;18.30;1.00;;;;;;4977811;28;19984;-59
2023/10/24 03:41:39;;;;;;;;;;;18.30;1.00;;;;;;4976001;28;19934;-59
2023/10/24 03:44:06;;;;;;;;;;;18.30;1.00;;;;;;4974879;28;20020;-59
2023/10/24 03:46:32;;;;;;;;;;;18.30;1.00;;;;;;4972712;28;20021;-59
2023/10/24 03:48:59;;;;;;;;;;;18.30;1.00;;;;;;4977503;28;19989;-59
2023/10/24 03:51:26;;;;;;;;;;;18.30;1.00;;;;;;4977710;28;20423;-59
2023/10/24 03:53:53;;;;;;;;;;;18.30;1.00;;;;;;4979149;28;19952;-59
2023/10/24 03:56:20;;;;;;;;;;;18.30;1.00;;;;;;4978493;28;19929;-59
2023/10/24 03:58:46;;;;;;;;;;;18.30;1.00;;;;;;4977748;28;19980;-58
2023/10/24 04:01:13;;;;;;;;;;;18.30;1.00;;;;;;4976927;28;19929;-59
2023/10/24 04:03:40;;;;;;;;;;;18.30;1.00;;;;;;4959487;28;19926;-59
2023/10/24 04:06:12;;;;;;;;;;;18.30;1.00;;;;;;4976200;28;19930;-59
2023/10/24 04:08:39;;;;;;;;;;;18.30;1.00;;;;;;4975014;28;19965;-59
2023/10/24 04:11:16;;;;;;;;;;;18.30;1.00;;;;;;4971338;28;20021;-59
2023/10/24 04:13:46;;;;;;;;;;;18.20;1.00;;;;;;4961253;28;20007;-59
2023/10/24 04:16:13;;;;;;;;;;;18.20;1.00;;;;;;4973887;28;20028;-59
2023/10/24 04:18:40;;;;;;;;;;;18.20;1.00;;;;;;4977341;28;20024;-59
2023/10/24 04:21:07;;;;;;;;;;;18.20;1.00;;;;;;4976495;28;19978;-59
2023/10/24 04:23:33;;;;;;;;;;;18.20;1.00;;;;;;4972648;28;19926;-59
2023/10/24 04:26:00;;;;;;;;;;;18.20;1.00;;;;;;4969613;28;20035;-59
2023/10/24 04:28:29;;;;;;;;;;;18.20;1.00;;;;;;4979470;28;19941;-59
2023/10/24 04:30:56;;;;;;;;;;;18.20;1.00;;;;;;4973873;28;20311;-59
2023/10/24 04:33:23;;;;;;;;;;;18.20;1.00;;;;;;4975753;28;19925;-59
2023/10/24 04:35:51;;;;;;;;;;;18.20;1.00;;;;;;4978298;28;19926;-59
2023/10/24 04:38:18;;;;;;;;;;;18.20;1.00;;;;;;4977789;28;20380;-59
2023/10/24 04:40:44;;;;;;;;;;;18.20;1.00;;;;;;4974760;28;20029;-59
2023/10/24 04:43:11;;;;;;;;;;;18.20;1.00;;;;;;4978988;28;20037;-59
2023/10/24 04:45:38;;;;;;;;;;;18.20;1.00;;;;;;4974111;28;20392;-59
2023/10/24 04:48:05;;;;;;;;;;;18.20;1.00;;;;;;4974952;28;19937;-59
2023/10/24 04:50:35;;;;;;;;;;;18.20;1.00;;;;;;4975387;28;20011;-59
2023/10/24 04:53:02;;;;;;;;;;;18.20;1.00;;;;;;4978543;28;20033;-60
2023/10/24 04:55:29;;;;;;;;;;;18.10;1.00;;;;;;4976256;28;20692;-59
2023/10/24 04:57:56;;;;;;;;;;;18.10;1.00;;;;;;4968377;28;20017;-59
2023/10/24 05:00:24;;;;;;;;;;;18.10;1.00;;;;;;4970027;28;19949;-59
2023/10/24 05:02:51;;;;;;;;;;;18.10;1.00;;;;;;4972487;28;19927;-59
2023/10/24 05:05:18;;;;;;;;;;;18.10;1.00;;;;;;4974809;28;19953;-59
2023/10/24 05:07:45;;;;;;;;;;;18.10;1.00;;;;;;4970475;28;19926;-59
2023/10/24 05:10:12;;;;;;;;;;;18.10;1.00;;;;;;4969670;28;20339;-59
2023/10/24 05:12:39;;;;;;;;;;;18.10;1.00;;;;;;4968360;28;20025;-58
2023/10/24 05:15:05;;;;;;;;;;;18.10;1.00;;;;;;4971682;28;19966;-59
2023/10/24 05:17:32;;;;;;;;;;;18.10;1.00;;;;;;4965794;28;19937;-58
2023/10/24 05:20:01;;;;;;;;;;;18.10;1.00;;;;;;4968709;28;19938;-59
2023/10/24 05:22:28;;;;;;;;;;;18.10;1.00;;;;;;4971946;28;19977;-59
2023/10/24 05:24:55;;;;;;;;;;;18.10;1.00;;;;;;4972196;28;19973;-59
2023/10/24 05:27:22;;;;;;;;;;;18.00;1.00;;;;;;4976000;28;19930;-59
2023/10/24 05:29:49;;;;;;;;;;;18.00;1.00;;;;;;4969873;28;20352;-58
2023/10/24 05:32:16;;;;;;;;;;;18.00;1.00;;;;;;4973289;28;19926;-57
2023/10/24 05:34:43;;;;;;;;;;;18.00;1.00;;;;;;4972427;28;19930;-58
2023/10/24 05:37:09;;;;;;;;;;;18.00;1.00;;;;;;4974598;28;20304;-58
2023/10/24 05:39:36;;;;;;;;;;;18.00;1.00;;;;;;4974725;28;20553;-59
2023/10/24 05:42:03;;;;;;;;;;;18.00;1.00;;;;;;4972414;28;19926;-57
2023/10/24 05:44:30;;;;;;;;;;;18.00;1.00;;;;;;4968357;28;20049;-59
2023/10/24 05:46:56;;;;;;;;;;;18.00;1.00;;;;;;4975148;28;20381;-58
2023/10/24 05:49:23;;;;;;;;;;;18.00;1.00;;;;;;4973255;28;19961;-59
2023/10/24 05:51:50;;;;;;;;;;;18.00;1.00;;;;;;4973628;28;19937;-59
2023/10/24 05:54:17;;;;;;;;;;;18.00;1.00;;;;;;4977166;28;20008;-59
2023/10/24 05:56:44;;;;;;;;;;;18.00;1.00;;;;;;4975583;28;19926;-59
2023/10/24 05:59:10;;;;;;;;;;;18.00;1.00;;;;;;4976810;28;20438;-58
2023/10/24 06:01:37;;;;;;;;;;;18.00;1.00;;;;;;4978674;28;20013;-59
2023/10/24 06:04:04;;;;;;;;;;;18.00;1.00;;;;;;4976241;28;19930;-59
2023/10/24 06:06:31;;;;;;;;;;;18.00;1.00;;;;;;4972939;28;19930;-59
2023/10/24 06:08:57;;;;;;;;;;;18.00;1.00;;;;;;4970824;28;20032;-60
2023/10/24 06:11:24;;;;;;;;;;;18.00;1.00;;;;;;4972144;28;20056;-59
2023/10/24 06:13:51;;;;;;;;;;;18.00;1.00;;;;;;4971663;28;20388;-58
2023/10/24 06:16:18;;;;;;;;;;;18.00;1.00;;;;;;4974353;28;19969;-60
2023/10/24 06:18:45;;;;;;;;;;;17.90;1.00;;;;;;4975544;28;19930;-58
2023/10/24 06:21:12;;;;;;;;;;;17.90;1.00;;;;;;4972092;28;19926;-60
2023/10/24 06:23:39;;;;;;;;;;;17.90;1.00;;;;;;4969098;28;19940;-59
2023/10/24 06:26:15;;;;;;;;;;;18.00;1.00;;;;;;4965758;28;20032;-60
2023/10/24 06:28:42;;;;;;;;;;;17.90;1.00;;;;;;4968182;28;19930;-57
2023/10/24 06:31:10;;;;;;;;;;;17.90;1.00;;;;;;4974497;28;19933;-59
2023/10/24 06:33:37;;;;;;;;;;;17.90;1.00;;;;;;4970442;28;19952;-60
2023/10/24 06:36:05;;;;;;;;;;;17.90;1.00;;;;;;4968150;28;19930;-57
2023/10/24 06:38:31;;;;;;;;;;;17.90;1.00;;;;;;4970369;28;20680;-58
2023/10/24 06:40:58;;;;;;;;;;;17.90;1.00;;;;;;4968666;28;19981;-58
2023/10/24 06:43:25;;;;;;;;;;;17.90;1.00;;;;;;4970033;28;19930;-60
2023/10/24 06:45:53;;;;;;;;;;;17.90;1.00;;;;;;4969676;28;19926;-60
2023/10/24 06:48:20;;;;;;;;;;;17.90;1.00;;;;;;4965695;28;19937;-60
2023/10/24 06:50:47;;;;;;;;;;;17.90;1.00;;;;;;4970213;28;20292;-60
2023/10/24 06:53:14;;;;;;;;;;;17.90;1.00;;;;;;4971200;28;20520;-60
2023/10/24 06:55:41;;;;;;;;;;;17.90;1.00;;;;;;4973680;28;19932;-59
2023/10/24 06:58:08;;;;;;;;;;;17.90;1.00;;;;;;4975010;28;19957;-60
2023/10/24 07:00:35;;;;;;;;;;;17.90;1.00;;;;;;4966837;28;19972;-59
2023/10/24 07:03:01;;;;;;;;;;;17.90;1.00;;;;;;4970938;28;19937;-59
2023/10/24 07:05:28;;;;;;;;;;;17.90;1.00;;;;;;4973276;28;19969;-58
2023/10/24 07:07:55;;;;;;;;;;;17.90;1.00;;;;;;4980734;28;19988;-60
2023/10/24 07:10:22;;;;;;;;;;;17.90;1.00;;;;;;4979041;28;19934;-59
2023/10/24 07:12:49;;;;;;;;;;;17.90;1.00;;;;;;4978283;28;20433;-58
2023/10/24 07:15:15;;;;;;;;;;;17.80;1.00;;;;;;4977701;28;20029;-60
2023/10/24 07:17:42;;;;;;;;;;;17.90;1.00;;;;;;4976365;28;19926;-57
2023/10/24 07:20:10;;;;;;;;;;;17.80;1.00;;;;;;4977073;28;20025;-59
2023/10/24 07:22:37;;;;;;;;;;;17.80;1.00;;;;;;4974583;28;20001;-59
2023/10/24 07:25:04;;;;;;;;;;;17.80;1.00;;;;;;4976664;28;19926;-59
2023/10/24 07:27:30;;;;;;;;;;;17.80;1.00;;;;;;4978526;28;19926;-60
2023/10/24 07:29:57;;;;;;;;;;;17.80;1.00;;;;;;4976759;28;20034;-57
2023/10/24 07:32:24;;;;;;;;;;;17.80;1.00;;;;;;4975143;28;20551;-58
2023/10/24 07:34:56;;;;;;;;;;;17.80;1.00;;;;;;4979347;28;19930;-59
2023/10/24 07:37:24;;;;;;;;;;;17.80;1.00;;;;;;4976477;28;19934;-60
2023/10/24 07:39:51;;;;;;;;;;;17.80;1.00;;;;;;4976006;28;19926;-59
2023/10/24 07:42:17;;;;;;;;;;;17.80;1.00;;;;;;4976716;28;20807;-59
2023/10/24 07:44:44;;;;;;;;;;;17.80;1.00;;;;;;4975205;28;19938;-58
2023/10/24 07:47:11;;;;;;;;;;;17.80;1.00;;;;;;4977627;28;19926;-60
2023/10/24 07:49:38;;;;;;;;;;;17.80;1.00;;;;;;4974404;28;19937;-59
2023/10/24 07:52:05;;;;;;;;;;;17.80;1.00;;;;;;4975933;28;19934;-57
2023/10/24 07:54:32;;;;;;;;;;;17.80;1.00;;;;;;4976358;28;19926;-60
2023/10/24 07:56:59;;;;;;;;;;;17.80;1.00;;;;;;4974576;28;19936;-60
2023/10/24 07:59:29;;;;;;;;;;;17.80;1.00;;;;;;4976010;28;20018;-60
2023/10/24 08:01:56;;;;;;;;;;;17.80;1.00;;;;;;4975038;28;19930;-60
2023/10/24 08:04:23;;;;;;;;;;;17.80;1.00;;;;;;4975723;28;19985;-59
2023/10/24 08:06:49;;;;;;;;;;;17.70;1.00;;;;;;4972916;28;19966;-59
2023/10/24 08:09:16;;;;;;;;;;;17.70;1.00;;;;;;4974967;28;19937;-59
2023/10/24 08:11:43;;;;;;;;;;;17.70;1.00;;;;;;4972974;28;20403;-57
2023/10/24 08:14:10;;;;;;;;;;;17.80;1.00;;;;;;4976025;28;20013;-59
2023/10/24 08:16:37;;;;;;;;;;;17.70;1.00;;;;;;4980658;28;19929;-60
2023/10/24 08:19:03;;;;;;;;;;;17.80;1.00;;;;;;4974627;28;20016;-60
2023/10/24 08:21:30;;;;;;;;;;;17.70;1.00;;;;;;4973257;28;19958;-58
2023/10/24 08:23:57;;;;;;;;;;;17.70;1.00;;;;;;4975854;28;19926;-60
2023/10/24 08:26:24;;;;;;;;;;;17.70;1.00;;;;;;4978359;28;19930;-60
2023/10/24 08:28:51;;;;;;;;;;;17.70;1.00;;;;;;4979630;28;19926;-60
2023/10/24 08:31:18;;;;;;;;;;;17.80;1.00;;;;;;4973324;28;20041;-60
2023/10/24 08:33:44;;;;;;;;;;;17.70;1.00;;;;;;4975267;28;19936;-59
2023/10/24 08:36:11;;;;;;;;;;;17.70;1.00;;;;;;4977062;28;20024;-59
2023/10/24 08:38:38;;;;;;;;;;;17.70;1.00;;;;;;4976035;28;20299;-60
2023/10/24 08:41:05;;;;;;;;;;;17.70;1.00;;;;;;4976782;28;20024;-59
2023/10/24 08:43:32;;;;;;;;;;;17.70;1.00;;;;;;4974001;28;20403;-59
2023/10/24 08:45:59;;;;;;;;;;;17.70;1.00;;;;;;4973132;28;19933;-59
2023/10/24 08:48:26;;;;;;;;;;;17.70;1.00;;;;;;4977309;28;19929;-59
2023/10/24 08:50:53;;;;;;;;;;;17.70;1.00;;;;;;4977274;28;19934;-59
2023/10/24 08:53:20;;;;;;;;;;;17.70;1.00;;;;;;4978130;28;19972;-60
2023/10/24 08:55:57;;;;;;;;;;;17.80;1.00;;;;;;4976497;28;20388;-60
2023/10/24 08:58:24;;;;;;;;;;;17.70;1.00;;;;;;4977854;28;19926;-59
2023/10/24 09:00:51;;;;;;;;;;;17.70;1.00;;;;;;4976967;28;19969;-59
2023/10/24 09:03:18;;;;;;;;;;;17.70;1.00;;;;;;4975389;28;20024;-60
2023/10/24 09:05:48;;;;;;;;;;;17.70;1.00;;;;;;4978499;28;19930;-59
2023/10/24 09:08:17;;;;;;;;;;;17.70;1.00;;;;;;4959454;28;19930;-60
2023/10/24 09:10:45;;;;;;;;;;;17.70;1.00;;;;;;4974784;28;20024;-58
2023/10/24 09:13:13;;;;;;;;;;;17.70;1.00;;;;;;4972708;28;19925;-56
2023/10/24 09:15:39;;;;;;;;;;;17.70;1.00;;;;;;4973492;28;20013;-60
2023/10/24 09:18:06;;;;;;;;;;;17.70;1.00;;;;;;4977901;28;20008;-58
2023/10/24 09:20:35;;;;;;;;;;;17.70;1.00;;;;;;4976361;28;19929;-59
2023/10/24 09:23:05;;;;;;;;;;;17.70;1.00;;;;;;4976709;28;20024;-58
2023/10/24 09:25:32;;;;;;;;;;;17.70;1.00;;;;;;4957652;28;20265;-59
2023/10/24 09:28:13;;;;;;;;;;;17.70;1.00;;;;;;4977737;28;19934;-59
2023/10/24 09:30:39;;;;;;;;;;;17.70;1.00;;;;;;4971948;28;19941;-59
2023/10/24 09:33:07;;;;;;;;;;;17.70;1.00;;;;;;4974697;28;19973;-60
2023/10/24 09:35:37;;;;;;;;;;;17.70;1.00;;;;;;4976766;28;20017;-60
2023/10/24 09:38:06;;;;;;;;;;;17.70;1.00;;;;;;4978240;28;20307;-59
2023/10/24 09:40:37;;;;;;;;;;;17.60;1.00;;;;;;4976743;28;19936;-60
2023/10/24 09:43:07;;;;;;;;;;;17.60;1.00;;;;;;4975125;28;19925;-59
2023/10/24 09:45:34;;;;;;;;;;;17.70;1.00;;;;;;4974260;28;20056;-59
2023/10/24 09:48:02;;;;;;;;;;;17.70;1.00;;;;;;4972099;28;19937;-57
2023/10/24 09:50:29;;;;;;;;;;;17.60;1.00;;;;;;4976952;28;19930;-60
2023/10/24 09:52:56;;;;;;;;;;;17.60;1.00;;;;;;4974161;28;19961;-59
2023/10/24 09:55:23;;;;;;;;;;;17.60;1.00;;;;;;4974010;28;20335;-59
2023/10/24 09:57:50;;;;;;;;;;;17.60;1.00;;;;;;4975627;28;19988;-60
2023/10/24 10:00:18;;;;;;;;;;;17.70;1.00;;;;;;4974333;28;20384;-60
2023/10/24 10:02:46;;;;;;;;;;;17.60;1.00;;;;;;4972741;28;19926;-60
2023/10/24 10:05:14;;;;;;;;;;;17.60;1.00;;;;;;4973950;28;19970;-60
2023/10/24 10:07:42;;;;;;;;;;;17.60;1.00;;;;;;4975239;28;20020;-58
2023/10/24 10:10:10;;;;;;;;;;;17.60;1.00;;;;;;4974513;28;19934;-58
2023/10/24 10:12:37;;;;;;;;;;;17.60;1.00;;;;;;4973906;28;19937;-59
2023/10/24 10:15:23;;;;;;;;;;;17.60;1.00;;;;;;4970580;28;20017;-59
2023/10/24 10:17:49;;;;;;;;;;;17.60;1.00;;;;;;4970919;28;20060;-60
2023/10/24 10:20:29;;;;;;;;;;;17.60;1.00;;;;;;4974146;28;19934;-60
2023/10/24 10:23:14;;;;;;;;;;;17.60;1.00;;;;;;4973283;28;19926;-59
2023/10/24 10:25:50;;;;;;;;;;;17.60;1.00;;;;;;4975716;28;20766;-60
2023/10/24 10:28:17;;;;;;;;;;;17.60;1.00;;;;;;4972747;28;20017;-58
2023/10/24 10:31:02;;;;;;;;;;;17.60;1.00;;;;;;4975125;28;19937;-58
2023/10/24 10:33:49;;;;;;;;;;;17.60;1.00;;;;;;4961390;28;19926;-59
2023/10/24 10:36:17;;;;;;;;;;;17.60;1.00;;;;;;4974243;28;20004;-59
2023/10/24 10:38:47;;;;;;;;;;;17.60;1.00;;;;;;4970945;28;19985;-58
2023/10/24 10:41:23;;;;;;;;;;;17.60;1.00;;;;;;4975018;28;19926;-59
2023/10/24 10:43:53;;;;;;;;;;;17.60;1.00;;;;;;4973060;28;20129;-58
2023/10/24 10:46:20;;;;;;;;;;;17.60;1.00;;;;;;4974826;28;19930;-59
2023/10/24 10:48:48;;;;;;;;;;;17.60;1.00;;;;;;4973870;28;19949;-56
2023/10/24 10:51:15;;;;;;;;;;;17.60;1.00;;;;;;4972836;28;20016;-59
2023/10/24 10:53:48;;;;;;;;;;;17.60;1.00;;;;;;4968208;28;19926;-58
2023/10/24 10:56:18;;;;;;;;;;;17.60;1.00;;;;;;4975509;28;20718;-58
2023/10/24 10:58:44;;;;;;;;;;;17.60;1.00;;;;;;4974550;28;20015;-59
2023/10/24 11:01:14;;;;;;;;;;;17.60;1.00;;;;;;4975978;28;20020;-59
2023/10/24 11:03:44;;;;;;;;;;;17.60;1.00;;;;;;4978961;28;20034;-58
2023/10/24 11:06:14;;;;;;;;;;;17.60;1.00;;;;;;4972998;28;19926;-59
2023/10/24 11:08:42;;;;;;;;;;;17.60;1.00;;;;;;4976003;28;20028;-57
2023/10/24 11:11:10;;;;;;;;;;;17.70;1.00;;;;;;4969847;28;19926;-59
2023/10/24 11:13:38;;;;;;;;;;;17.60;1.00;;;;;;4974471;28;19926;-58
2023/10/24 11:16:06;;;;;;;;;;;17.60;1.00;;;;;;4974968;28;19926;-58
2023/10/24 11:18:47;;;;;;;;;;;17.60;1.00;;;;;;4958182;28;20434;-59
2023/10/24 11:21:14;;;;;;;;;;;17.60;1.00;;;;;;4976395;28;20427;-58
2023/10/24 11:23:42;;;;;;;;;;;17.60;1.00;;;;;;4970121;28;20020;-58
2023/10/24 11:26:09;;;;;;;;;;;17.60;1.00;;;;;;4972271;28;19936;-58
2023/10/24 11:28:36;;;;;;;;;;;17.60;1.00;;;;;;4973207;28;19930;-58
2023/10/24 11:31:29;;;;;;;;;;;17.70;1.00;;;;;;4969651;28;19925;-58
2023/10/24 11:33:57;;;;;;;;;;;17.70;1.00;;;;;;4969174;28;19969;-58
2023/10/24 11:36:25;;;;;;;;;;;17.70;1.00;;;;;;4974470;28;19926;-59
2023/10/24 11:38:52;;;;;;;;;;;17.70;1.00;;;;;;4976270;28;20028;-58
2023/10/24 11:41:19;;;;;;;;;;;17.70;1.00;;;;;;4978205;28;19932;-58
2023/10/24 11:43:47;;;;;;;;;;;17.60;1.00;;;;;;4957275;28;19926;-59
2023/10/24 11:46:14;;;;;;;;;;;17.70;1.00;;;;;;4973425;28;19933;-57
2023/10/24 11:48:41;;;;;;;;;;;17.70;1.00;;;;;;4970186;28;19933;-59
2023/10/24 11:51:08;;;;;;;;;;;17.70;1.00;;;;;;4974034;28;20307;-59
2023/10/24 11:53:35;;;;;;;;;;;17.70;1.00;;;;;;4973139;28;20414;-57
2023/10/24 11:56:02;;;;;;;;;;;17.70;1.00;;;;;;4981225;28;20391;-58
2023/10/24 11:58:35;;;;;;;;;;;17.70;1.00;;;;;;4975029;28;19941;-59
2023/10/24 12:01:02;;;;;;;;;;;17.70;1.00;;;;;;4974971;28;19930;-58
2023/10/24 12:03:45;;;;;;;;;;;17.70;1.00;;;;;;4977418;28;20020;-58
2023/10/24 12:06:15;;;;;;;;;;;17.70;1.00;;;;;;4975092;28;20012;-59
2023/10/24 12:08:42;;;;;;;;;;;17.70;1.00;;;;;;4975531;28;20021;-58
2023/10/24 12:11:09;;;;;;;;;;;17.70;1.00;;;;;;4977494;28;19927;-57
2023/10/24 12:13:36;;;;;;;;;;;17.70;1.00;;;;;;4976175;28;19941;-59
2023/10/24 12:16:03;;;;;;;;;;;17.70;1.00;;;;;;4973829;28;20037;-59
2023/10/24 12:18:29;;;;;;;;;;;17.70;1.00;;;;;;4973600;28;19948;-58
2023/10/24 12:20:56;;;;;;;;;;;17.70;1.00;;;;;;4977319;28;19934;-59
2023/10/24 12:23:23;;;;;;;;;;;17.70;1.00;;;;;;4977128;28;19933;-58
2023/10/24 12:25:50;;;;;;;;;;;17.70;1.00;;;;;;4974129;28;20012;-57
2023/10/24 12:28:17;;;;;;;;;;;17.70;1.00;;;;;;4977023;28;19941;-57
2023/10/24 12:30:44;;;;;;;;;;;17.70;1.00;;;;;;4975436;28;20020;-57
2023/10/24 12:33:11;;;;;;;;;;;17.70;1.00;;;;;;4979813;28;19926;-59
2023/10/24 12:35:38;;;;;;;;;;;17.70;1.00;;;;;;4974860;28;19941;-58
2023/10/24 12:38:05;;;;;;;;;;;17.70;1.00;;;;;;4975026;28;19930;-57
2023/10/24 12:40:32;;;;;;;;;;;17.70;1.00;;;;;;4977131;28;19932;-59
2023/10/24 12:42:59;;;;;;;;;;;17.70;1.00;;;;;;4975509;28;19932;-58
2023/10/24 12:45:26;;;;;;;;;;;17.70;1.00;;;;;;4972906;28;20016;-59
2023/10/24 12:47:53;;;;;;;;;;;17.70;1.00;;;;;;4970520;28;20013;-58
2023/10/24 12:50:20;;;;;;;;;;;17.70;1.00;;;;;;4972038;28;19936;-59
2023/10/24 12:52:47;;;;;;;;;;;17.70;1.00;;;;;;4972738;28;19941;-58
2023/10/24 12:55:13;;;;;;;;;;;17.70;1.00;;;;;;4975901;28;19930;-59
2023/10/24 12:57:40;;;;;;;;;;;17.70;1.00;;;;;;4975817;28;19938;-58
2023/10/24 13:00:08;;;;;;;;;;;17.70;1.00;;;;;;4973673;28;20380;-58
2023/10/24 13:02:35;;;;;;;;;;;17.70;1.00;;;;;;4975516;28;19934;-59
2023/10/24 13:05:02;;;;;;;;;;;17.70;1.00;;;;;;4978677;28;19934;-59
2023/10/24 13:07:29;;;;;;;;;;;17.70;1.00;;;;;;4977574;28;20391;-59
2023/10/24 13:09:55;;;;;;;;;;;17.70;1.00;;;;;;4969890;28;19962;-59
2023/10/24 13:12:22;;;;;;;;;;;17.70;1.00;;;;;;4975701;28;19973;-59
2023/10/24 13:14:49;;;;;;;;;;;17.70;1.00;;;;;;4974412;28;20008;-58
2023/10/24 13:17:16;;;;;;;;;;;17.70;1.00;;;;;;4975017;28;19926;-59
2023/10/24 13:19:42;;;;;;;;;;;17.70;1.00;;;;;;4974648;28;19926;-58
2023/10/24 13:22:10;;;;;;;;;;;17.70;1.00;;;;;;4976879;28;20008;-57
2023/10/24 13:24:37;;;;;;;;;;;17.70;1.00;;;;;;4974271;28;20294;-58
2023/10/24 13:27:05;;;;;;;;;;;17.70;1.00;;;;;;4974907;28;19926;-59
2023/10/24 13:29:32;;;;;;;;;;;17.70;1.00;;;;;;4971545;28;19976;-58
2023/10/24 13:32:01;;;;;;;;;;;17.70;1.00;;;;;;4974553;28;19930;-59
2023/10/24 13:34:29;;;;;;;;;;;17.70;1.00;;;;;;4974641;28;19926;-58
2023/10/24 13:36:59;;;;;;;;;;;17.60;1.00;;;;;;4974376;28;20052;-58
2023/10/24 13:39:25;;;;;;;;;;;17.70;1.00;;;;;;4974542;28;19929;-58
2023/10/24 13:41:52;;;;;;;;;;;17.70;1.00;;;;;;4975350;28;19934;-58
2023/10/24 13:44:19;;;;;;;;;;;17.70;1.00;;;;;;4977877;28;20392;-58
2023/10/24 13:46:46;;;;;;;;;;;17.70;1.00;;;;;;4975530;28;19965;-59
2023/10/24 13:49:13;;;;;;;;;;;17.70;1.00;;;;;;4971186;28;20964;-59
2023/10/24 13:51:40;;;;;;;;;;;17.70;1.00;;;;;;4970036;28;19957;-56
2023/10/24 13:54:07;;;;;;;;;;;17.70;1.00;;;;;;4962589;28;19942;-59
2023/10/24 13:56:34;;;;;;;;;;;17.70;1.00;;;;;;4971358;28;19941;-59
2023/10/24 13:59:01;;;;;;;;;;;17.70;1.00;;;;;;4971560;28;19934;-59
2023/10/24 14:01:28;;;;;;;;;;;17.70;1.00;;;;;;4964902;28;19934;-59
2023/10/24 14:03:55;;;;;;;;;;;17.70;1.00;;;;;;4971311;28;19941;-56
2023/10/24 14:06:22;;;;;;;;;;;17.70;1.00;;;;;;4971500;28;19934;-59
2023/10/24 14:08:54;;;;;;;;;;;17.60;1.00;;;;;;4973021;28;20517;-58
2023/10/24 14:11:21;;;;;;;;;;;17.70;1.00;;;;;;4972258;28;19926;-59
2023/10/24 14:13:47;;;;;;;;;;;17.70;1.00;;;;;;4974744;28;20446;-59
2023/10/24 14:16:14;;;;;;;;;;;17.70;1.00;;;;;;4973085;28;19930;-57
2023/10/24 14:18:41;;;;;;;;;;;17.70;1.00;;;;;;4970990;28;20411;-59
2023/10/24 14:21:08;;;;;;;;;;;17.70;1.00;;;;;;4956749;28;20273;-58
2023/10/24 14:23:34;;;;;;;;;;;17.70;1.00;;;;;;4974872;28;19934;-58
2023/10/24 14:26:01;;;;;;;;;;;17.70;1.00;;;;;;4976069;28;19925;-59
2023/10/24 14:28:30;;;;;;;;;;;17.60;1.00;;;;;;4972247;28;20014;-58
2023/10/24 14:30:56;;;;;;;;;;;17.60;1.00;;;;;;4973916;28;19929;-60
2023/10/24 14:33:23;;;;;;;;;;;17.60;1.00;;;;;;4973494;28;20033;-59